KPZQ METAR Reports


Rogers City, Presque Isle County Airport, MI, United States (KPZQ) 45-24-25N 083-48-46W
Apr 19, 2021 - 01:55 PM EDT / 2021.04.19 1755 UTC
Wind: from the WSW (250 degrees) at 18 MPH (16 KT) gusting to 24 MPH (21 KT):0
Visibility: 10 mile(s):0
Sky conditions: partly cloudy
Temperature: 43.7 F (6.5 C)
Dew Point: 33.1 F (0.6 C)
Relative Humidity: 65%
Pressure (altimeter): 29.66 in. Hg (1004 hPa)
ob: KPZQ 191755Z AUTO 25016G21KT 10SM SCT026 SCT032 SCT120 07/01 A2966 RMK AO2 T00650006 10069 20052
cycle: 18

 

Rogers City METAR Meteogram

Weather Chart

Nearby METAR Reports

KPZQ - Rogers City, Michigan, USA
Distance from station: SSW 1mi, 2km
Updated: Mon, 19-Apr-2021 1:55pm EDT
Partly cloudy
Partly cloudy
 Wind from WSW
Wind: WSW 18 mph , 30 km/h, Gust: 24 mph , 39 km/h
Temperature: 45°F , 7°C
Wind Chill: 37°F , 3°C
Dew Point: 34°F , 1°C
Humidity: 66%
Barometer: 29.66 inHg , 1004.4 hPa
Clouds: Partly cloudy
Visibility: 10 miles , 16 km
Cloud details: Partly cloudy 2600 ft
Partly cloudy 3200 ft
Partly cloudy 12000 ft
2021/04/19 17:55 KPZQ 191755Z AUTO 25016G21KT 10SM SCT026 SCT032 SCT120 07/01 A2966 RMK AO2 T00650006 10069 20052
KAPN - Alpena, Michigan, USA
Distance from station: SSE 27mi, 43km
Updated: Mon, 19-Apr-2021 1:54pm EDT
Overcast
Overcast
 Wind from WSW
Wind: WSW 13 mph , 20 km/h
Temperature: 46°F , 8°C
Wind Chill: 40°F , 4°C
Dew Point: 36°F , 2°C
Humidity: 66%
Barometer: 29.66 inHg , 1004.4 hPa
Clouds: Overcast
Visibility: 10 miles , 16 km
Cloud details: Few Clouds 1500 ft
Mostly cloudy 2800 ft
Overcast 3300 ft
2021/04/19 17:54 KAPN 191754Z 25011KT 10SM FEW015 BKN028 OVC033 08/02 A2966 RMK AO2 SLP049 60006 T00780022 10083 20033 53005
 
KSLH - Cheboygan, Michigan, USA
Distance from station: WNW 38mi, 61km
Updated: Mon, 19-Apr-2021 1:55pm EDT
Light rain, Overcast
Light rain, Overcast
 Wind from WSW
Wind: WSW 13 mph , 20 km/h, Gust: 22 mph , 35 km/h
Temperature: 41°F , 5°C
Wind Chill: 34°F , 1°C
Dew Point: 34°F , 1°C
Humidity: 76%
Barometer: 29.65 inHg , 1004.1 hPa
Summary: Light rain
Clouds: Overcast
Visibility: 5 miles , 8 km
Cloud details: Partly cloudy 1300 ft
Mostly cloudy 2400 ft
Overcast 3100 ft
2021/04/19 17:55 KSLH 191755Z AUTO 24011G19KT 5SM -RA SCT013 BKN024 OVC031 05/01 A2965 RMK AO2
KDRM - Drummond Is, Michigan, USA
Distance from station: N 40mi, 65km
Updated: Mon, 19-Apr-2021 1:55pm EDT
Overcast
Overcast
 Wind from WSW
Wind: WSW 12 mph , 19 km/h, Gust: 18 mph , 30 km/h
Temperature: 41°F , 5°C
Wind Chill: 34°F , 1°C
Dew Point: 37°F , 3°C
Humidity: 87%
Barometer: 29.62 inHg , 1003 hPa
Clouds: Overcast
Visibility: 10 miles , 16 km
Cloud details: Overcast 1000 ft
2021/04/19 17:55 KDRM 191755Z AUTO 24010G16KT 200V260 10SM OVC010 05/03 A2962 RMK AO2 60001 T00500025 10062 20043
 
KPLN - Pellston, Michigan, USA
Distance from station: WNW 49mi, 79km
Updated: Mon, 19-Apr-2021 1:54pm EDT
Overcast
Overcast
 Wind from W
Wind: W 12 mph , 19 km/h, Gust: 22 mph , 35 km/h
Temperature: 41°F , 5°C
Wind Chill: 34°F , 1°C
Dew Point: 30°F , -1°C
Humidity: 66%
Barometer: 29.68 inHg , 1005.1 hPa
Clouds: Overcast
Visibility: 10 miles , 16 km
Cloud details: Few Clouds 2000 ft
Mostly cloudy 2600 ft
Overcast 3400 ft
2021/04/19 17:54 KPLN 191754Z AUTO 26010G19KT 10SM FEW020 BKN026 OVC034 05/M01 A2968 RMK AO2 RAB19E39 SLP056 P0000 60000 T00501011 10056 20039 51011
KMCD - Mackinac Island, Michigan, USA
Distance from station: NW 50mi, 80km
Updated: Mon, 19-Apr-2021 1:55pm EDT
Overcast
Overcast
 Wind from WSW
Wind: WSW 15 mph , 24 km/h, Gust: 24 mph , 39 km/h
Temperature: 41°F , 5°C
Wind Chill: 33°F , 1°C
Dew Point: 34°F , 1°C
Humidity: 76%
Barometer: 29.65 inHg , 1004.1 hPa
Clouds: Overcast
Visibility: 10 miles , 16 km
Cloud details: Partly cloudy 1600 ft
Mostly cloudy 2300 ft
Overcast 4100 ft
2021/04/19 17:55 KMCD 191755Z AUTO 24013G21KT 10SM SCT016 BKN023 OVC041 05/01 A2965 RMK AO2 T00530005 10062 20037